Time;durP1;ratioP1;P1;durP2;ratioP2;P2;SDS_P1;SDS_P2;PMS_P1;PMS_P2;Temp;Humidity;BMP_temperature;BMP_pressure;BME280_temperature;BME280_humidity;BME280_pressure;Samples;Min_cycle;Max_cycle;Signal;HPM_P1;HPM_P2
2022/03/10 00:02:22;;;;;;;;;;;1.60;67.50;;;;;;5076911;28;19990;-75
2022/03/10 00:04:49;;;;;;;;;;;1.50;67.80;;;;;;5067667;28;19924;-78
2022/03/10 00:07:15;;;;;;;;;;;1.60;68.10;;;;;;5068887;28;19929;-76
2022/03/10 00:09:42;;;;;;;;;;;1.50;67.70;;;;;;5060478;28;19965;-75
2022/03/10 00:12:09;;;;;;;;;;;1.70;67.80;;;;;;5064195;28;19924;-76
2022/03/10 00:14:36;;;;;;;;;;;1.90;67.60;;;;;;5069701;28;19925;-76
2022/03/10 00:17:03;;;;;;;;;;;2.10;67.00;;;;;;5078057;28;19946;-78
2022/03/10 00:19:30;;;;;;;;;;;2.20;66.30;;;;;;5080464;28;19928;-76
2022/03/10 00:21:58;;;;;;;;;;;2.40;66.00;;;;;;5068510;28;19925;-77
2022/03/10 00:24:25;;;;;;;;;;;2.50;65.10;;;;;;5066286;28;20740;-76
2022/03/10 00:26:52;;;;;;;;;;;2.60;64.60;;;;;;5069785;28;19974;-76
2022/03/10 00:29:19;;;;;;;;;;;2.60;64.20;;;;;;5074492;28;20299;-76
2022/03/10 00:31:46;;;;;;;;;;;2.70;63.60;;;;;;5072829;28;19968;-78
2022/03/10 00:34:13;;;;;;;;;;;2.80;63.20;;;;;;5077872;28;19991;-75
2022/03/10 00:36:40;;;;;;;;;;;2.80;63.30;;;;;;5072092;28;19924;-76
2022/03/10 00:39:07;;;;;;;;;;;2.60;63.60;;;;;;5066239;28;19924;-78
2022/03/10 00:41:33;;;;;;;;;;;2.40;64.30;;;;;;5071273;28;19928;-76
2022/03/10 00:44:00;;;;;;;;;;;2.20;65.10;;;;;;5066464;28;20443;-75
2022/03/10 00:46:27;;;;;;;;;;;1.90;65.80;;;;;;5080986;28;19928;-78
2022/03/10 00:48:54;;;;;;;;;;;1.70;66.80;;;;;;5081441;28;20352;-78
2022/03/10 00:51:21;;;;;;;;;;;1.60;67.30;;;;;;5074255;28;19981;-76
2022/03/10 00:53:47;;;;;;;;;;;1.40;67.70;;;;;;5073245;28;19963;-76
2022/03/10 00:56:14;;;;;;;;;;;1.30;68.00;;;;;;5075233;28;19935;-76
2022/03/10 00:58:41;;;;;;;;;;;1.30;67.70;;;;;;5069564;28;19964;-76
2022/03/10 01:01:09;;;;;;;;;;;1.20;67.80;;;;;;5071702;28;19924;-75
2022/03/10 01:03:36;;;;;;;;;;;1.10;67.80;;;;;;5068674;28;20035;-75
2022/03/10 01:06:03;;;;;;;;;;;1.10;67.70;;;;;;5070361;28;19990;-73
2022/03/10 01:08:30;;;;;;;;;;;1.00;67.70;;;;;;5071684;28;19985;-72
2022/03/10 01:10:57;;;;;;;;;;;0.90;67.90;;;;;;5066815;28;19924;-75
2022/03/10 01:13:23;;;;;;;;;;;0.80;69.00;;;;;;5070455;28;20342;-75
2022/03/10 01:15:50;;;;;;;;;;;0.70;69.50;;;;;;5069954;28;20476;-75
2022/03/10 01:18:17;;;;;;;;;;;0.70;69.30;;;;;;5066541;28;19931;-75
2022/03/10 01:20:44;;;;;;;;;;;0.60;68.90;;;;;;5069381;28;20308;-78
2022/03/10 01:23:14;;;;;;;;;;;0.50;70.20;;;;;;5069128;28;19925;-78
2022/03/10 01:25:41;;;;;;;;;;;0.50;70.30;;;;;;5079021;28;19933;-75
2022/03/10 01:28:08;;;;;;;;;;;0.50;70.20;;;;;;5067561;28;19928;-79
2022/03/10 01:30:34;;;;;;;;;;;0.40;69.80;;;;;;5078054;28;19925;-77
2022/03/10 01:33:01;;;;;;;;;;;0.40;69.80;;;;;;5066975;28;19952;-78
2022/03/10 01:35:28;;;;;;;;;;;0.30;70.20;;;;;;5073508;28;19925;-78
2022/03/10 01:37:55;;;;;;;;;;;0.30;69.70;;;;;;5068873;28;19932;-76
2022/03/10 01:40:22;;;;;;;;;;;0.30;70.20;;;;;;5073125;28;19974;-76
2022/03/10 01:42:48;;;;;;;;;;;0.20;70.40;;;;;;5072178;28;19925;-79
2022/03/10 01:45:16;;;;;;;;;;;0.10;71.30;;;;;;5073229;28;19928;-77
2022/03/10 01:47:43;;;;;;;;;;;0.00;71.30;;;;;;5084653;28;20331;-76
2022/03/10 01:50:11;;;;;;;;;;;0.00;71.50;;;;;;5067415;28;19986;-79
2022/03/10 01:52:38;;;;;;;;;;;-0.10;73.00;;;;;;5066091;28;19951;-76
2022/03/10 01:55:05;;;;;;;;;;;-0.10;72.50;;;;;;5069184;28;19925;-75
2022/03/10 01:57:32;;;;;;;;;;;-0.10;72.10;;;;;;5068643;28;19978;-76
2022/03/10 01:59:59;;;;;;;;;;;-0.20;72.50;;;;;;5065559;28;19959;-78
2022/03/10 02:02:25;;;;;;;;;;;-0.20;72.90;;;;;;5073950;28;19929;-78
2022/03/10 02:04:55;;;;;;;;;;;-0.20;73.80;;;;;;5069099;28;19928;-76
2022/03/10 02:10:19;;;;;;;;;;;-0.30;72.50;;;;;;5077199;28;19932;-79
2022/03/10 02:12:47;;;;;;;;;;;-0.30;72.80;;;;;;5067290;28;20392;-78
2022/03/10 02:18:01;;;;;;;;;;;-0.20;74.60;;;;;;5076406;28;19936;-77
2022/03/10 02:20:28;;;;;;;;;;;-0.20;74.50;;;;;;5067288;28;20376;-76
2022/03/10 02:22:55;;;;;;;;;;;-0.20;74.20;;;;;;5071957;28;20312;-78
2022/03/10 02:25:22;;;;;;;;;;;-0.20;73.50;;;;;;5076289;28;19925;-78
2022/03/10 02:27:50;;;;;;;;;;;-0.20;74.00;;;;;;5069127;28;19924;-78
2022/03/10 02:30:18;;;;;;;;;;;-0.30;73.50;;;;;;5069838;28;19978;-78
2022/03/10 02:32:45;;;;;;;;;;;-0.30;73.40;;;;;;5064648;28;19924;-76
2022/03/10 02:35:12;;;;;;;;;;;-0.40;73.50;;;;;;5074258;28;19983;-76
2022/03/10 02:37:40;;;;;;;;;;;-0.40;73.50;;;;;;5059962;28;19925;-76
2022/03/10 02:40:07;;;;;;;;;;;-0.40;73.20;;;;;;5067602;28;19925;-75
2022/03/10 02:42:34;;;;;;;;;;;-0.40;72.80;;;;;;5062964;28;19948;-78
2022/03/10 02:45:01;;;;;;;;;;;-0.40;72.40;;;;;;5073899;28;19928;-76
2022/03/10 02:47:28;;;;;;;;;;;-0.50;71.80;;;;;;5078653;28;19933;-77
2022/03/10 02:49:55;;;;;;;;;;;-0.50;72.40;;;;;;5071753;28;19952;-78
2022/03/10 02:52:22;;;;;;;;;;;-0.60;72.70;;;;;;5074388;28;20006;-79
2022/03/10 02:54:49;;;;;;;;;;;-0.60;72.90;;;;;;5072088;28;19925;-78
2022/03/10 02:57:16;;;;;;;;;;;-0.70;73.30;;;;;;5080266;28;19951;-78
2022/03/10 02:59:43;;;;;;;;;;;-0.80;73.80;;;;;;5073127;28;20392;-76
2022/03/10 03:02:10;;;;;;;;;;;-0.80;73.80;;;;;;5076450;28;19928;-78
2022/03/10 03:04:37;;;;;;;;;;;-0.90;73.60;;;;;;5069523;28;19983;-75
2022/03/10 03:07:04;;;;;;;;;;;-0.90;74.50;;;;;;5079901;28;20292;-76
2022/03/10 03:09:31;;;;;;;;;;;-0.90;74.70;;;;;;5077673;28;19947;-76
2022/03/10 03:11:58;;;;;;;;;;;-1.00;75.60;;;;;;5077152;28;19935;-79
2022/03/10 03:14:24;;;;;;;;;;;-1.00;76.30;;;;;;5072747;28;19925;-78
2022/03/10 03:16:51;;;;;;;;;;;-1.00;76.40;;;;;;5072410;28;19928;-77
2022/03/10 03:19:18;;;;;;;;;;;-1.00;76.30;;;;;;5066494;28;19928;-78
2022/03/10 03:21:45;;;;;;;;;;;-1.00;76.90;;;;;;5068418;28;19935;-76
2022/03/10 03:24:12;;;;;;;;;;;-1.10;76.40;;;;;;5074637;28;19942;-76
2022/03/10 03:26:39;;;;;;;;;;;-1.10;75.80;;;;;;5063616;28;19975;-76
2022/03/10 03:29:06;;;;;;;;;;;-1.10;76.80;;;;;;5073097;28;19982;-77
2022/03/10 03:31:33;;;;;;;;;;;-1.10;76.80;;;;;;5076367;28;19963;-76
2022/03/10 03:33:59;;;;;;;;;;;-1.10;76.40;;;;;;5074732;28;20269;-77
2022/03/10 03:36:26;;;;;;;;;;;-1.20;77.20;;;;;;5069758;28;20384;-78
2022/03/10 03:38:53;;;;;;;;;;;-1.20;78.30;;;;;;5072383;28;20281;-75
2022/03/10 03:41:20;;;;;;;;;;;-1.20;79.20;;;;;;5078770;28;19932;-75
2022/03/10 03:43:47;;;;;;;;;;;-1.20;78.40;;;;;;5074047;28;19924;-78
2022/03/10 03:46:13;;;;;;;;;;;-1.20;78.00;;;;;;5075942;28;19964;-78
2022/03/10 03:48:40;;;;;;;;;;;-1.20;78.20;;;;;;5065130;28;19936;-77
2022/03/10 03:51:08;;;;;;;;;;;-1.10;78.50;;;;;;5076852;28;19924;-76
2022/03/10 03:53:35;;;;;;;;;;;-1.20;77.30;;;;;;5080470;28;19974;-77
2022/03/10 03:56:01;;;;;;;;;;;-1.10;78.10;;;;;;5072135;28;19947;-75
2022/03/10 03:58:28;;;;;;;;;;;-1.10;77.90;;;;;;5072193;28;19929;-78
2022/03/10 04:00:55;;;;;;;;;;;-1.10;77.10;;;;;;5075161;28;19929;-75
2022/03/10 04:03:22;;;;;;;;;;;-1.20;77.70;;;;;;5080957;28;19924;-77
2022/03/10 04:05:49;;;;;;;;;;;-1.20;77.20;;;;;;5078304;28;19978;-78
2022/03/10 04:08:16;;;;;;;;;;;-1.30;76.40;;;;;;5075856;28;20011;-75
2022/03/10 04:10:43;;;;;;;;;;;-1.40;76.20;;;;;;5075218;28;19929;-79
2022/03/10 04:13:09;;;;;;;;;;;-1.40;76.20;;;;;;5073543;28;19960;-76
2022/03/10 04:15:36;;;;;;;;;;;-1.50;76.20;;;;;;5073399;28;19943;-78
2022/03/10 04:18:03;;;;;;;;;;;-1.50;76.50;;;;;;5069908;28;19935;-79
2022/03/10 04:20:30;;;;;;;;;;;-1.50;77.50;;;;;;5072340;28;19959;-76
2022/03/10 04:22:57;;;;;;;;;;;-1.60;77.40;;;;;;5068905;28;19928;-76
2022/03/10 04:25:24;;;;;;;;;;;-1.60;77.00;;;;;;5073923;28;19932;-78
2022/03/10 04:27:53;;;;;;;;;;;-1.50;77.00;;;;;;5074817;28;19968;-77
2022/03/10 04:30:22;;;;;;;;;;;-1.60;77.60;;;;;;5078478;28;19978;-75
2022/03/10 04:32:49;;;;;;;;;;;-1.60;77.90;;;;;;5064313;28;19925;-78
2022/03/10 04:35:17;;;;;;;;;;;-1.60;78.40;;;;;;5070566;28;20019;-75
2022/03/10 04:37:46;;;;;;;;;;;-1.60;81.30;;;;;;5071930;28;20273;-76
2022/03/10 04:40:13;;;;;;;;;;;-1.50;81.10;;;;;;5071309;28;19975;-78
2022/03/10 04:42:40;;;;;;;;;;;-1.40;81.10;;;;;;5079080;28;20517;-78
2022/03/10 04:45:07;;;;;;;;;;;-1.50;81.20;;;;;;5067554;28;19924;-77
2022/03/10 04:47:34;;;;;;;;;;;-1.40;81.10;;;;;;5081125;28;19968;-78
2022/03/10 04:50:01;;;;;;;;;;;-1.40;80.30;;;;;;5074706;28;20351;-77
2022/03/10 04:52:28;;;;;;;;;;;-1.40;80.50;;;;;;5075782;28;19924;-78
2022/03/10 04:54:55;;;;;;;;;;;-1.40;79.60;;;;;;5077960;28;19963;-75
2022/03/10 04:57:22;;;;;;;;;;;-1.40;79.40;;;;;;5076847;28;19985;-75
2022/03/10 04:59:49;;;;;;;;;;;-1.40;79.00;;;;;;5068932;28;19986;-77
2022/03/10 05:02:16;;;;;;;;;;;-1.50;79.30;;;;;;5076369;28;19958;-76
2022/03/10 05:04:43;;;;;;;;;;;-1.50;78.90;;;;;;5077043;28;19924;-79
2022/03/10 05:07:10;;;;;;;;;;;-1.50;78.60;;;;;;5069474;28;19967;-76
2022/03/10 05:09:36;;;;;;;;;;;-1.60;79.10;;;;;;5076581;28;19956;-78
2022/03/10 05:12:05;;;;;;;;;;;-1.60;78.60;;;;;;5068516;28;19959;-76
2022/03/10 05:14:32;;;;;;;;;;;-1.60;78.60;;;;;;5074512;28;19928;-78
2022/03/10 05:16:59;;;;;;;;;;;-1.60;78.20;;;;;;5074445;28;19974;-78
2022/03/10 05:19:26;;;;;;;;;;;-1.60;78.10;;;;;;5070971;28;20384;-76
2022/03/10 05:21:52;;;;;;;;;;;-1.60;78.50;;;;;;5068834;28;19967;-76
2022/03/10 05:24:19;;;;;;;;;;;-1.60;78.20;;;;;;5067325;28;20422;-76
2022/03/10 05:26:47;;;;;;;;;;;-1.70;78.30;;;;;;5069631;28;19963;-78
2022/03/10 05:29:14;;;;;;;;;;;-1.80;77.90;;;;;;5069622;28;19974;-79
2022/03/10 05:31:41;;;;;;;;;;;-1.80;77.40;;;;;;5070650;28;20026;-79
2022/03/10 05:34:07;;;;;;;;;;;-1.90;77.90;;;;;;5061730;28;19924;-79
2022/03/10 05:36:34;;;;;;;;;;;-2.00;79.40;;;;;;5070255;28;19952;-76
2022/03/10 05:39:01;;;;;;;;;;;-2.00;78.60;;;;;;5065311;28;19967;-79
2022/03/10 05:41:30;;;;;;;;;;;-2.10;78.90;;;;;;5070811;28;19993;-75
2022/03/10 05:43:56;;;;;;;;;;;-2.10;78.90;;;;;;5083659;28;19946;-79
2022/03/10 05:46:23;;;;;;;;;;;-2.10;78.70;;;;;;5069566;28;20388;-75
2022/03/10 05:48:50;;;;;;;;;;;-2.10;78.90;;;;;;5071553;28;19981;-76
2022/03/10 05:51:17;;;;;;;;;;;-2.10;80.20;;;;;;5070797;28;20396;-79
2022/03/10 05:53:43;;;;;;;;;;;-2.10;78.90;;;;;;5069748;28;19978;-77
2022/03/10 05:56:10;;;;;;;;;;;-2.10;78.70;;;;;;5064782;28;19928;-78
2022/03/10 05:58:37;;;;;;;;;;;-2.00;79.10;;;;;;5066555;28;19924;-76
2022/03/10 06:01:04;;;;;;;;;;;-2.00;78.50;;;;;;5076389;28;19947;-76
2022/03/10 06:03:31;;;;;;;;;;;-2.00;79.10;;;;;;5069577;28;20019;-78
2022/03/10 06:05:57;;;;;;;;;;;-2.00;80.10;;;;;;5072210;28;19991;-76
2022/03/10 06:08:25;;;;;;;;;;;-2.00;79.40;;;;;;5079804;28;19925;-75
2022/03/10 06:10:52;;;;;;;;;;;-2.00;79.30;;;;;;5072299;28;19967;-78
2022/03/10 06:13:18;;;;;;;;;;;-1.90;79.80;;;;;;5072252;28;19959;-76
2022/03/10 06:15:45;;;;;;;;;;;-1.90;79.80;;;;;;5067108;28;19932;-75
2022/03/10 06:18:13;;;;;;;;;;;-1.90;78.70;;;;;;5079790;28;19951;-78
2022/03/10 06:20:40;;;;;;;;;;;-1.90;78.40;;;;;;5079561;28;19924;-75
2022/03/10 06:23:07;;;;;;;;;;;-1.90;79.00;;;;;;5084023;28;19924;-75
2022/03/10 06:25:33;;;;;;;;;;;-1.80;78.50;;;;;;5074749;28;19971;-78
2022/03/10 06:28:00;;;;;;;;;;;-1.80;80.00;;;;;;5072774;28;19933;-79
2022/03/10 06:30:27;;;;;;;;;;;-1.80;79.70;;;;;;5064811;28;19964;-75
2022/03/10 06:32:54;;;;;;;;;;;-1.80;79.20;;;;;;5077670;28;19925;-76
2022/03/10 06:35:21;;;;;;;;;;;-1.70;81.40;;;;;;5073682;28;19968;-76
2022/03/10 06:37:47;;;;;;;;;;;-1.70;80.10;;;;;;5072809;28;19932;-78
2022/03/10 06:40:15;;;;;;;;;;;-1.70;79.50;;;;;;5082137;28;19929;-78
2022/03/10 06:42:42;;;;;;;;;;;-1.60;79.70;;;;;;5072973;28;20308;-76
2022/03/10 06:45:09;;;;;;;;;;;-1.60;80.60;;;;;;5073251;28;19978;-78
2022/03/10 06:47:38;;;;;;;;;;;-1.60;79.70;;;;;;5077051;28;20436;-77
2022/03/10 06:50:06;;;;;;;;;;;-1.60;79.90;;;;;;5073198;28;19965;-76
2022/03/10 06:52:33;;;;;;;;;;;-1.50;80.30;;;;;;5080586;28;19932;-76
2022/03/10 06:54:59;;;;;;;;;;;-1.50;81.20;;;;;;5082134;28;19935;-78
2022/03/10 06:57:26;;;;;;;;;;;-1.40;81.70;;;;;;5069094;28;19928;-77
2022/03/10 06:59:53;;;;;;;;;;;-1.30;81.10;;;;;;5069979;28;19951;-77
2022/03/10 07:02:20;;;;;;;;;;;-1.20;80.80;;;;;;5069962;28;19971;-76
2022/03/10 07:04:46;;;;;;;;;;;-1.10;81.80;;;;;;5063689;28;20008;-78
2022/03/10 07:07:13;;;;;;;;;;;-1.00;82.00;;;;;;5069258;28;19932;-76
2022/03/10 07:09:41;;;;;;;;;;;-0.90;81.70;;;;;;5081563;28;19978;-77
2022/03/10 07:12:09;;;;;;;;;;;-0.80;81.60;;;;;;5065568;28;19951;-76
2022/03/10 07:14:36;;;;;;;;;;;-0.70;81.50;;;;;;5078386;28;20008;-77
2022/03/10 07:17:03;;;;;;;;;;;-0.50;81.90;;;;;;5073156;28;19950;-77
2022/03/10 07:19:30;;;;;;;;;;;-0.30;81.50;;;;;;5087485;28;20630;-76
2022/03/10 07:21:57;;;;;;;;;;;-0.20;81.00;;;;;;5070492;28;19931;-77
2022/03/10 07:24:25;;;;;;;;;;;0.00;81.40;;;;;;5067262;28;19928;-77
2022/03/10 07:26:58;;;;;;;;;;;0.20;81.60;;;;;;5068872;28;19964;-76
2022/03/10 07:29:25;;;;;;;;;;;0.40;80.20;;;;;;5066294;28;19925;-76
2022/03/10 07:31:56;;;;;;;;;;;0.50;79.70;;;;;;5071441;28;19976;-76
2022/03/10 07:34:22;;;;;;;;;;;0.60;79.60;;;;;;5061079;28;19988;-76
2022/03/10 07:36:49;;;;;;;;;;;0.80;79.10;;;;;;5077755;28;19924;-77
2022/03/10 07:39:16;;;;;;;;;;;1.00;79.30;;;;;;5068511;28;19929;-76
2022/03/10 07:41:43;;;;;;;;;;;1.30;79.10;;;;;;5074982;28;19936;-76
2022/03/10 07:44:10;;;;;;;;;;;1.50;78.40;;;;;;5076873;28;19932;-78
2022/03/10 07:46:37;;;;;;;;;;;1.80;80.30;;;;;;5078387;28;19977;-77
2022/03/10 07:49:08;;;;;;;;;;;2.00;79.10;;;;;;5074872;28;19975;-77
2022/03/10 07:51:35;;;;;;;;;;;2.20;78.50;;;;;;5078217;28;20014;-76
2022/03/10 07:54:02;;;;;;;;;;;2.40;78.10;;;;;;5078330;28;19947;-77
2022/03/10 07:56:29;;;;;;;;;;;2.60;76.80;;;;;;5067137;28;19971;-77
2022/03/10 07:58:55;;;;;;;;;;;2.90;73.90;;;;;;5060476;28;19924;-77
2022/03/10 08:01:22;;;;;;;;;;;3.10;73.70;;;;;;5074089;28;19977;-76
2022/03/10 08:03:49;;;;;;;;;;;3.30;72.70;;;;;;5070430;28;19951;-77
2022/03/10 08:06:16;;;;;;;;;;;3.50;71.70;;;;;;5061664;28;19928;-77
2022/03/10 08:08:44;;;;;;;;;;;3.70;70.70;;;;;;5062094;28;19991;-76
2022/03/10 08:11:11;;;;;;;;;;;4.00;70.60;;;;;;5073653;28;20001;-76
2022/03/10 08:13:37;;;;;;;;;;;4.10;68.80;;;;;;5068831;28;19929;-77
2022/03/10 08:16:04;;;;;;;;;;;4.40;65.50;;;;;;5077677;28;19928;-78
2022/03/10 08:18:31;;;;;;;;;;;4.60;65.20;;;;;;5062994;28;19941;-77
2022/03/10 08:21:02;;;;;;;;;;;4.90;63.90;;;;;;5066942;28;19910;-77
2022/03/10 08:23:29;;;;;;;;;;;5.30;61.50;;;;;;5072445;28;19925;-79
2022/03/10 08:25:56;;;;;;;;;;;5.50;60.80;;;;;;5072656;28;19975;-76
2022/03/10 08:28:23;;;;;;;;;;;5.90;59.30;;;;;;5068181;28;19925;-75
2022/03/10 08:30:50;;;;;;;;;;;6.00;58.70;;;;;;5072611;28;19968;-75
2022/03/10 08:33:17;;;;;;;;;;;6.20;58.20;;;;;;5069942;28;19978;-77
2022/03/10 08:35:44;;;;;;;;;;;6.50;56.70;;;;;;5066122;28;19928;-79
2022/03/10 08:38:11;;;;;;;;;;;6.60;55.90;;;;;;5058747;28;19990;-76
2022/03/10 08:40:37;;;;;;;;;;;6.80;55.30;;;;;;5075093;28;19924;-77
2022/03/10 08:43:05;;;;;;;;;;;6.90;52.90;;;;;;5069855;28;19928;-78
2022/03/10 08:45:32;;;;;;;;;;;7.10;52.60;;;;;;5072817;28;19947;-77
2022/03/10 08:47:59;;;;;;;;;;;7.20;52.00;;;;;;5074887;28;19931;-78
2022/03/10 08:50:25;;;;;;;;;;;7.40;51.80;;;;;;5072162;28;20010;-76
2022/03/10 08:52:52;;;;;;;;;;;7.50;50.80;;;;;;5071356;28;20384;-79
2022/03/10 08:55:20;;;;;;;;;;;7.60;50.90;;;;;;5074738;28;20326;-76
2022/03/10 08:57:47;;;;;;;;;;;7.80;51.10;;;;;;5071956;28;19977;-79
2022/03/10 09:00:15;;;;;;;;;;;8.10;50.80;;;;;;5069560;28;19935;-76
2022/03/10 09:02:41;;;;;;;;;;;8.20;48.60;;;;;;5074443;28;19925;-76
2022/03/10 09:05:09;;;;;;;;;;;8.30;48.30;;;;;;5073912;28;20363;-79
2022/03/10 09:07:36;;;;;;;;;;;8.50;48.10;;;;;;5070478;28;19928;-79
2022/03/10 09:10:08;;;;;;;;;;;8.60;47.40;;;;;;5075065;28;19925;-77
2022/03/10 09:12:35;;;;;;;;;;;8.80;47.20;;;;;;5080836;28;19924;-76
2022/03/10 09:15:02;;;;;;;;;;;8.90;47.40;;;;;;5078368;28;19950;-76
2022/03/10 09:17:29;;;;;;;;;;;9.10;47.30;;;;;;5075682;28;19946;-76
2022/03/10 09:19:56;;;;;;;;;;;9.20;47.50;;;;;;5074852;28;19974;-79
2022/03/10 09:22:25;;;;;;;;;;;9.40;46.80;;;;;;5071043;28;19925;-77
2022/03/10 09:24:52;;;;;;;;;;;9.40;45.10;;;;;;5069421;28;19928;-77
2022/03/10 09:27:19;;;;;;;;;;;9.60;46.00;;;;;;5062456;28;19970;-77
2022/03/10 09:29:46;;;;;;;;;;;9.70;45.10;;;;;;5065752;28;19947;-78
2022/03/10 09:32:13;;;;;;;;;;;9.90;46.70;;;;;;5074063;28;19924;-78
2022/03/10 09:34:40;;;;;;;;;;;9.90;45.00;;;;;;5068337;28;19924;-79
2022/03/10 09:37:06;;;;;;;;;;;10.00;45.00;;;;;;5079607;28;19946;-79
2022/03/10 09:39:33;;;;;;;;;;;10.10;44.10;;;;;;5072180;28;19929;-77
2022/03/10 09:42:04;;;;;;;;;;;10.30;43.60;;;;;;5074005;28;20249;-75
2022/03/10 09:44:35;;;;;;;;;;;10.20;41.60;;;;;;5066665;28;19932;-77
2022/03/10 09:47:03;;;;;;;;;;;10.30;42.90;;;;;;5070987;28;19967;-77
2022/03/10 09:49:34;;;;;;;;;;;10.30;43.20;;;;;;5067839;28;19928;-79
2022/03/10 09:52:01;;;;;;;;;;;10.40;43.00;;;;;;5070916;28;19928;-77
2022/03/10 09:54:29;;;;;;;;;;;10.50;43.10;;;;;;5068468;28;20335;-76
2022/03/10 09:56:56;;;;;;;;;;;10.50;43.30;;;;;;5064944;28;20353;-75
2022/03/10 09:59:26;;;;;;;;;;;10.40;40.80;;;;;;5067394;28;20387;-80
2022/03/10 10:01:54;;;;;;;;;;;10.40;42.10;;;;;;5069875;28;19931;-79
2022/03/10 10:04:22;;;;;;;;;;;10.50;42.60;;;;;;5070052;28;19933;-76
2022/03/10 10:06:59;;;;;;;;;;;10.50;41.30;;;;;;5064819;28;19951;-76
2022/03/10 10:09:38;;;;;;;;;;;10.70;41.90;;;;;;5065678;28;19932;-77
2022/03/10 10:12:05;;;;;;;;;;;10.80;41.40;;;;;;5067123;28;19928;-79
2022/03/10 10:14:36;;;;;;;;;;;10.90;41.30;;;;;;5069407;28;19928;-75
2022/03/10 10:17:03;;;;;;;;;;;10.90;41.20;;;;;;5069226;28;20253;-77
2022/03/10 10:19:34;;;;;;;;;;;11.00;40.70;;;;;;5075454;28;19928;-80
2022/03/10 10:22:23;;;;;;;;;;;11.10;40.60;;;;;;5069069;28;19979;-77
2022/03/10 10:24:53;;;;;;;;;;;11.20;41.20;;;;;;5070042;28;19940;-77
2022/03/10 10:27:21;;;;;;;;;;;11.10;40.70;;;;;;5070984;28;19929;-80
2022/03/10 10:29:55;;;;;;;;;;;11.20;39.90;;;;;;5065502;28;19959;-75
2022/03/10 10:32:25;;;;;;;;;;;11.20;39.90;;;;;;5067005;28;19956;-77
2022/03/10 10:35:03;;;;;;;;;;;11.30;40.30;;;;;;5071511;28;19967;-75
2022/03/10 10:37:30;;;;;;;;;;;11.40;40.40;;;;;;5070528;28;19929;-76
2022/03/10 10:40:06;;;;;;;;;;;11.60;40.60;;;;;;5069837;28;19971;-77
2022/03/10 10:42:35;;;;;;;;;;;11.60;40.00;;;;;;5069906;28;19924;-77
2022/03/10 10:45:22;;;;;;;;;;;11.50;39.10;;;;;;5068990;28;20011;-76
2022/03/10 10:48:08;;;;;;;;;;;11.60;40.30;;;;;;5063176;28;20302;-76
2022/03/10 10:50:36;;;;;;;;;;;11.80;39.40;;;;;;5064819;28;19939;-77
2022/03/10 10:53:04;;;;;;;;;;;11.80;38.90;;;;;;5070336;28;20308;-76
2022/03/10 10:55:32;;;;;;;;;;;11.90;39.10;;;;;;5084707;28;19932;-79
2022/03/10 10:58:14;;;;;;;;;;;12.00;39.30;;;;;;5063393;28;19933;-79
2022/03/10 11:00:42;;;;;;;;;;;12.20;39.40;;;;;;5070577;28;20462;-79
2022/03/10 11:03:25;;;;;;;;;;;12.30;38.50;;;;;;5067727;28;19931;-76
2022/03/10 11:05:53;;;;;;;;;;;12.40;39.10;;;;;;5070164;28;19925;-79
2022/03/10 11:08:21;;;;;;;;;;;12.50;38.40;;;;;;5078198;28;19985;-77
2022/03/10 11:10:48;;;;;;;;;;;12.70;37.90;;;;;;5068833;28;19975;-76
2022/03/10 11:13:20;;;;;;;;;;;12.80;38.40;;;;;;5073098;28;19931;-76
2022/03/10 11:15:48;;;;;;;;;;;12.90;37.20;;;;;;5071969;28;19925;-75
2022/03/10 11:18:16;;;;;;;55.22;30.77;;;12.90;37.30;;;;;;5069367;28;20411;-77
2022/03/10 11:20:44;;;;;;;;;;;12.90;37.10;;;;;;5072635;28;20060;-77
2022/03/10 11:23:20;;;;;;;;;;;12.90;37.20;;;;;;5072068;28;20291;-76
2022/03/10 11:25:54;;;;;;;55.75;31.88;;;13.00;38.00;;;;;;5056556;28;20338;-77
2022/03/10 11:28:26;;;;;;;56.60;31.42;;;13.00;36.70;;;;;;5071345;28;20052;-76
2022/03/10 11:30:56;;;;;;;59.65;36.10;;;13.10;37.20;;;;;;5073679;28;20389;-78
2022/03/10 11:33:30;;;;;;;60.47;36.30;;;13.20;37.70;;;;;;5071048;28;20474;-75
2022/03/10 11:35:58;;;;;;;59.00;37.20;;;13.40;37.30;;;;;;5068443;28;20407;-80
2022/03/10 11:38:56;;;;;;;58.95;36.05;;;13.70;36.20;;;;;;5070791;28;20422;-77
2022/03/10 11:41:29;;;;;;;65.15;39.63;;;14.00;36.10;;;;;;5067842;28;20426;-75
2022/03/10 11:43:58;;;;;;;61.33;39.75;;;14.10;35.30;;;;;;5063971;28;20896;-75
2022/03/10 11:46:30;;;;;;;65.85;42.55;;;14.20;34.00;;;;;;5063365;28;20397;-77
2022/03/10 11:49:11;;;;;;;66.05;43.70;;;14.30;33.60;;;;;;5061867;28;20415;-77
2022/03/10 11:51:52;;;;;;;64.37;41.23;;;14.30;34.10;;;;;;5056869;28;20417;-77
2022/03/10 11:54:21;;;;;;;61.22;39.25;;;14.30;33.60;;;;;;5067366;28;20751;-80
2022/03/10 11:56:51;;;;;;;62.70;40.77;;;14.50;34.20;;;;;;5068448;28;20778;-77
2022/03/10 11:59:36;;;;;;;63.72;41.65;;;14.60;33.10;;;;;;5067879;28;20414;-77
2022/03/10 12:02:03;;;;;;;63.20;41.45;;;14.50;33.20;;;;;;5068167;28;20824;-79
2022/03/10 12:04:35;;;;;;;64.43;41.15;;;14.40;34.10;;;;;;5067112;28;20422;-77
2022/03/10 12:07:02;;;;;;;58.83;39.80;;;14.50;34.10;;;;;;5067763;28;20461;-79
2022/03/10 12:09:33;;;;;;;62.83;41.70;;;14.70;33.80;;;;;;5066445;28;20422;-77
2022/03/10 12:12:20;;;;;;;66.78;43.13;;;14.80;33.30;;;;;;5068216;28;20476;-75
2022/03/10 12:15:29;;;;;;;65.80;41.27;;;14.70;33.10;;;;;;5083741;28;21002;-80
2022/03/10 12:17:57;;;;;;;65.95;40.97;;;14.90;32.30;;;;;;5060682;28;20414;-77
2022/03/10 12:20:36;;;;;;;63.58;41.90;;;15.00;32.20;;;;;;5058684;28;20416;-75
2022/03/10 12:23:03;;;;;;;65.28;43.10;;;15.00;31.40;;;;;;5062126;28;20385;-76
2022/03/10 12:25:39;;;;;;;61.58;41.70;;;15.00;31.60;;;;;;5067536;28;20435;-80
2022/03/10 12:28:07;;;;;;;62.53;40.65;;;14.80;32.20;;;;;;5071526;28;20474;-77
2022/03/10 12:30:40;;;;;;;63.58;40.97;;;14.80;33.00;;;;;;5071348;28;20411;-76
2022/03/10 12:33:07;;;;;;;68.07;42.95;;;14.90;33.20;;;;;;5068375;28;20448;-76
2022/03/10 12:35:36;;;;;;;68.70;44.13;;;15.00;32.50;;;;;;5067111;28;20466;-76
2022/03/10 12:38:04;;;;;;;62.33;40.92;;;15.10;31.70;;;;;;5068442;28;20411;-77
2022/03/10 12:40:34;;;;;;;63.72;40.65;;;15.20;32.60;;;;;;5066681;28;20461;-80
2022/03/10 12:43:04;;;;;;;64.95;42.83;;;15.30;32.30;;;;;;5065243;28;20913;-75
2022/03/10 12:45:31;;;;;;;61.58;40.42;;;15.60;31.60;;;;;;5067785;28;20442;-76
2022/03/10 12:48:05;;;;;;;66.32;42.50;;;15.70;32.00;;;;;;5061663;28;20421;-77
2022/03/10 12:50:33;;;;;;;66.43;43.00;;;15.70;31.30;;;;;;5064669;28;20981;-76
2022/03/10 12:53:19;;;;;;;62.40;41.90;;;15.70;32.00;;;;;;5064730;28;21030;-75
2022/03/10 12:55:55;;;;;;;66.70;42.97;;;15.80;31.80;;;;;;5057412;28;20424;-77
2022/03/10 12:58:32;;;;;;;59.38;39.88;;;15.90;31.00;;;;;;5061805;28;20438;-78
2022/03/10 13:01:07;;;;;;;62.15;41.53;;;15.90;31.70;;;;;;5060074;28;20484;-75
2022/03/10 13:03:48;;;;;;;60.97;40.05;;;15.90;31.00;;;;;;5064284;28;20782;-79
2022/03/10 13:06:21;;;;;;;63.25;40.47;;;16.00;31.30;;;;;;5057727;28;20391;-75
2022/03/10 13:08:58;;;;;;;62.53;40.70;;;15.60;31.60;;;;;;5057340;28;20414;-77
2022/03/10 13:11:28;;;;;;;61.67;40.63;;;15.70;31.50;;;;;;5060134;28;20928;-76
2022/03/10 13:14:12;;;;;;;63.93;41.27;;;15.70;30.80;;;;;;5062987;28;20919;-79
2022/03/10 13:16:46;;;;;;;60.80;40.05;;;15.80;30.90;;;;;;5071683;28;20398;-75
2022/03/10 13:19:21;;;;;;;59.88;39.70;;;15.80;30.70;;;;;;5065977;28;20415;-76
2022/03/10 13:21:56;;;;;;;58.92;38.72;;;16.00;31.10;;;;;;5064363;28;20407;-80
2022/03/10 13:24:41;;;;;;;60.00;39.65;;;16.10;29.50;;;;;;5067297;28;20543;-76
2022/03/10 13:27:17;;;;;;;58.33;38.63;;;15.80;29.90;;;;;;5062836;28;20410;-75
2022/03/10 13:29:51;;;;;;;59.47;38.15;;;15.70;30.00;;;;;;5060635;28;20451;-78
2022/03/10 13:32:27;;;;;;;58.78;37.97;;;15.70;30.40;;;;;;5063125;28;20460;-76
2022/03/10 13:34:58;;;;;;;54.63;36.63;;;15.80;31.20;;;;;;5071163;28;20475;-75
2022/03/10 13:37:26;;;;;;;55.37;37.33;;;16.00;30.10;;;;;;5067462;28;20468;-79
2022/03/10 13:39:56;;;;;;;55.28;36.65;;;16.20;29.70;;;;;;5066362;28;20776;-78
2022/03/10 13:42:26;;;;;;;57.38;37.42;;;16.30;29.40;;;;;;5062741;28;20438;-78
2022/03/10 13:45:10;;;;;;;53.83;34.83;;;16.50;28.80;;;;;;5072229;28;20591;-77
2022/03/10 13:48:01;;;;;;;55.47;36.92;;;16.50;29.30;;;;;;5065388;28;20425;-75
2022/03/10 13:50:35;;;;;;;53.25;35.90;;;16.40;28.40;;;;;;5059485;28;20920;-78
2022/03/10 13:53:08;;;;;;;54.03;35.00;;;16.40;28.90;;;;;;5070058;28;20449;-78
2022/03/10 13:55:43;;;;;;;55.15;35.90;;;16.60;28.80;;;;;;5067662;28;21071;-75
2022/03/10 13:58:11;;;;;;;55.58;35.75;;;16.60;28.60;;;;;;5068106;28;20403;-79
2022/03/10 14:00:39;;;;;;;;;;;16.40;28.30;;;;;;5062962;28;20488;-78
2022/03/10 14:03:12;;;;;;;;;;;16.20;28.80;;;;;;5086466;28;20434;-80
2022/03/10 14:05:41;;;;;;;;;;;16.30;29.40;;;;;;5069069;28;19924;-76
2022/03/10 14:08:25;;;;;;;52.42;30.38;;;16.40;29.50;;;;;;5065143;28;19920;-77
2022/03/10 14:10:58;;;;;;;53.08;31.23;;;16.50;28.90;;;;;;5066036;28;20113;-78
2022/03/10 14:13:26;;;;;;;;;;;16.60;28.50;;;;;;5070368;28;20049;-76
2022/03/10 14:15:56;;;;;;;;;;;16.50;28.70;;;;;;5068820;28;19920;-78